createdAt,value
2018-09-03T00:00:29.322Z,93.85
2018-09-03T00:02:58.859Z,94.44
2018-09-03T00:05:28.221Z,93.91
2018-09-03T00:07:57.784Z,94.11
2018-09-03T00:10:27.147Z,93.93
2018-09-03T00:12:56.587Z,94.13
2018-09-03T00:15:25.955Z,94.09
2018-09-03T00:17:55.497Z,94.26
2018-09-03T00:20:24.900Z,94.51
2018-09-03T00:22:54.318Z,94.60
2018-09-03T00:25:23.673Z,94.61
2018-09-03T00:27:53.227Z,94.21
2018-09-03T00:30:22.580Z,94.49
2018-09-03T00:32:57.302Z,94.13
2018-09-03T00:35:32.103Z,94.14
2018-09-03T00:38:06.830Z,93.69
2018-09-03T00:41:40.249Z,93.82
2018-09-03T00:44:15.046Z,93.89
2018-09-03T00:46:49.681Z,93.80
2018-09-03T00:49:19.055Z,93.79
2018-09-03T00:51:48.522Z,93.80
2018-09-03T00:54:17.907Z,93.45
2018-09-03T00:56:47.451Z,93.61
2018-09-03T00:59:16.814Z,93.21
2018-09-03T01:01:46.395Z,93.45
2018-09-03T01:04:15.768Z,93.14
2018-09-03T01:06:45.265Z,93.16
2018-09-03T01:09:14.629Z,93.59
2018-09-03T01:11:43.982Z,92.91
2018-09-03T01:14:13.469Z,93.38
2018-09-03T01:16:42.818Z,93.20
2018-09-03T01:19:12.274Z,93.04
2018-09-03T01:21:41.625Z,93.08
2018-09-03T01:24:11.183Z,93.02
2018-09-03T01:26:40.538Z,93.01
2018-09-03T01:29:10.103Z,92.69
2018-09-03T01:31:39.478Z,92.87
2018-09-03T01:34:09.011Z,92.51
2018-09-03T01:36:38.361Z,92.45
2018-09-03T01:39:09.492Z,92.65
2018-09-03T01:41:38.843Z,93.16
2018-09-03T01:44:08.365Z,92.85
2018-09-03T01:46:37.729Z,93.25
2018-09-03T01:49:07.256Z,93.26
2018-09-03T01:51:36.654Z,93.32
2018-09-03T01:54:06.415Z,93.68
2018-09-03T01:56:35.799Z,93.58
2018-09-03T01:59:05.381Z,93.65
2018-09-03T02:01:34.758Z,93.62
2018-09-03T02:04:04.312Z,93.42
2018-09-03T02:06:33.677Z,93.06
2018-09-03T02:09:03.458Z,93.21
2018-09-03T02:11:32.816Z,93.35
2018-09-03T02:14:02.306Z,93.70
2018-09-03T02:16:31.824Z,93.86
2018-09-03T02:19:01.361Z,93.75
2018-09-03T02:21:30.750Z,94.19
2018-09-03T02:24:00.253Z,94.03
2018-09-03T02:26:29.644Z,93.33
2018-09-03T02:28:59.129Z,93.40
2018-09-03T02:31:28.491Z,92.70
2018-09-03T02:33:58.060Z,93.07
2018-09-03T02:36:27.433Z,92.80
2018-09-03T02:38:56.987Z,92.72
2018-09-03T02:41:26.369Z,92.40
2018-09-03T02:43:55.861Z,92.89
2018-09-03T02:46:25.215Z,92.78
2018-09-03T02:48:54.665Z,92.72
2018-09-03T02:51:24.046Z,92.73
2018-09-03T02:53:53.554Z,93.04
2018-09-03T02:56:23.100Z,92.67
2018-09-03T02:58:52.485Z,92.92
2018-09-03T03:01:21.869Z,92.84
2018-09-03T03:03:51.373Z,93.03
2018-09-03T03:06:20.738Z,92.80
2018-09-03T03:08:50.305Z,93.08
2018-09-03T03:11:19.667Z,93.48
2018-09-03T03:13:49.186Z,93.00
2018-09-03T03:16:18.565Z,93.61
2018-09-03T03:18:48.130Z,93.33
2018-09-03T03:21:17.494Z,93.55
2018-09-03T03:23:47.016Z,93.22
2018-09-03T03:26:16.388Z,93.69
2018-09-03T03:28:45.918Z,93.80
2018-09-03T03:31:15.291Z,93.54
2018-09-03T03:33:44.847Z,93.63
2018-09-03T03:36:14.249Z,93.34
2018-09-03T03:38:43.738Z,93.04
2018-09-03T03:41:13.112Z,93.50
2018-09-03T03:43:42.635Z,93.30
2018-09-03T03:46:11.991Z,93.51
2018-09-03T03:48:42.020Z,93.65
2018-09-03T03:51:11.375Z,93.44
2018-09-03T03:53:40.870Z,93.58
2018-09-03T03:56:10.235Z,93.91
2018-09-03T03:58:39.778Z,94.13
2018-09-03T04:01:09.152Z,93.99
2018-09-03T04:03:38.706Z,93.76
2018-09-03T04:06:08.059Z,93.74
2018-09-03T04:08:37.666Z,93.92
2018-09-03T04:11:07.233Z,93.61
2018-09-03T04:13:36.806Z,93.70
2018-09-03T04:16:06.284Z,93.31
2018-09-03T04:18:35.706Z,93.42
2018-09-03T04:21:05.196Z,93.64
2018-09-03T04:23:35.755Z,93.41
2018-09-03T04:26:05.127Z,93.29
2018-09-03T04:28:34.706Z,93.37
2018-09-03T04:31:04.008Z,93.14
2018-09-03T04:33:33.568Z,93.03
2018-09-03T04:36:03.497Z,93.04
2018-09-03T04:38:32.988Z,93.00
2018-09-03T04:41:02.352Z,92.83
2018-09-03T04:43:31.883Z,92.98
2018-09-03T04:46:01.230Z,93.14
2018-09-03T04:48:30.682Z,92.78
2018-09-03T04:51:00.059Z,92.78
2018-09-03T04:53:29.614Z,92.04
2018-09-03T04:55:58.989Z,92.45
2018-09-03T04:58:28.446Z,92.53
2018-09-03T05:00:57.810Z,92.41
2018-09-03T05:03:27.321Z,92.77
2018-09-03T05:05:56.744Z,93.25
2018-09-03T05:08:26.213Z,93.06
2018-09-03T05:10:55.583Z,93.60
2018-09-03T05:13:26.159Z,93.41
2018-09-03T05:15:55.514Z,93.72
2018-09-03T05:18:25.061Z,93.56
2018-09-03T05:20:54.419Z,93.58
2018-09-03T05:23:23.967Z,93.60
2018-09-03T05:25:53.334Z,93.78
2018-09-03T05:28:22.864Z,93.36
2018-09-03T05:30:52.234Z,93.20
2018-09-03T05:33:21.770Z,93.27
2018-09-03T05:35:51.139Z,93.28
2018-09-03T05:38:20.714Z,93.08
2018-09-03T05:40:50.111Z,92.96
2018-09-03T05:43:19.660Z,92.94
2018-09-03T05:45:48.967Z,92.52
2018-09-03T05:48:18.394Z,92.05
2018-09-03T05:50:47.848Z,92.35
2018-09-03T05:53:17.298Z,92.14
2018-09-03T05:55:46.715Z,92.66
2018-09-03T05:58:16.190Z,92.20
2018-09-03T06:00:45.567Z,92.00
2018-09-03T06:03:15.111Z,91.62
2018-09-03T06:05:44.460Z,91.55
2018-09-03T06:08:14.035Z,90.93
2018-09-03T06:10:43.479Z,91.07
2018-09-03T06:13:12.937Z,90.82
2018-09-03T06:15:42.280Z,90.75
2018-09-03T06:18:11.849Z,90.94
2018-09-03T06:20:41.217Z,90.30
2018-09-03T06:23:10.754Z,90.47
2018-09-03T06:25:40.110Z,90.38
2018-09-03T06:28:09.806Z,89.91
2018-09-03T06:30:39.172Z,90.09
2018-09-03T06:33:08.675Z,89.86
2018-09-03T06:35:38.022Z,89.84
2018-09-03T06:38:07.694Z,89.55
2018-09-03T06:40:37.181Z,89.04
2018-09-03T06:43:06.784Z,89.41
2018-09-03T06:45:36.273Z,88.37
2018-09-03T06:48:05.661Z,88.66
2018-09-03T06:50:35.190Z,87.93
2018-09-03T06:53:04.554Z,87.98
2018-09-03T06:55:34.108Z,87.64
2018-09-03T06:58:03.490Z,88.01
2018-09-03T07:00:32.906Z,87.52
2018-09-03T07:03:02.274Z,87.16
2018-09-03T07:05:31.799Z,87.12
2018-09-03T07:08:01.170Z,86.55
2018-09-03T07:10:30.518Z,86.41
2018-09-03T07:13:04.082Z,86.56
2018-09-03T07:15:33.805Z,86.93
2018-09-03T07:18:03.582Z,87.00
2018-09-03T07:20:32.937Z,86.43
2018-09-03T07:23:02.598Z,87.28
2018-09-03T07:25:31.961Z,87.02
2018-09-03T07:28:01.446Z,87.00
2018-09-03T07:30:30.821Z,86.59
2018-09-03T07:33:00.354Z,86.24
2018-09-03T07:35:29.717Z,86.58
2018-09-03T07:38:00.181Z,86.74
2018-09-03T07:40:29.541Z,86.61
2018-09-03T07:42:59.122Z,85.86
2018-09-03T07:45:28.482Z,85.04
2018-09-03T07:47:57.996Z,84.30
2018-09-03T07:50:27.370Z,85.14
2018-09-03T07:52:56.897Z,83.79
2018-09-03T07:55:26.263Z,83.61
2018-09-03T07:57:55.820Z,83.94
2018-09-03T08:00:25.183Z,82.67
2018-09-03T08:02:54.619Z,82.50
2018-09-03T08:05:23.990Z,81.85
2018-09-03T08:07:53.550Z,82.71
2018-09-03T08:10:22.914Z,81.74
2018-09-03T08:12:52.359Z,81.47
2018-09-03T08:15:21.892Z,81.26
2018-09-03T08:17:51.314Z,81.99
2018-09-03T08:20:20.751Z,81.57
2018-09-03T08:22:50.200Z,80.60
2018-09-03T08:25:19.765Z,79.85
2018-09-03T08:27:49.126Z,80.13
2018-09-03T08:30:18.694Z,78.61
2018-09-03T08:32:48.107Z,77.35
2018-09-03T08:35:17.707Z,76.37
2018-09-03T08:37:47.054Z,75.74
2018-09-03T08:40:16.418Z,77.12
2018-09-03T08:42:45.793Z,77.18
2018-09-03T08:45:15.282Z,75.18
2018-09-03T08:47:44.669Z,76.17
2018-09-03T08:50:14.189Z,75.93
2018-09-03T08:52:43.555Z,74.87
2018-09-03T08:55:13.133Z,73.04
2018-09-03T08:57:42.486Z,76.29
2018-09-03T09:00:11.862Z,77.58
2018-09-03T09:02:41.428Z,76.49
2018-09-03T09:05:10.766Z,76.94
2018-09-03T09:07:40.304Z,77.02
2018-09-03T09:10:09.669Z,78.38
2018-09-03T09:12:39.086Z,77.71
2018-09-03T09:15:08.636Z,78.86
2018-09-03T09:17:38.039Z,77.85
2018-09-03T09:20:08.531Z,76.72
2018-09-03T09:22:37.901Z,75.35
2018-09-03T09:25:07.565Z,74.91
2018-09-03T09:27:36.875Z,73.37
2018-09-03T09:30:06.708Z,73.14
2018-09-03T09:32:36.079Z,75.63
2018-09-03T09:35:05.579Z,74.06
2018-09-03T09:37:34.953Z,74.16
2018-09-03T09:40:04.521Z,72.40
2018-09-03T09:42:33.926Z,73.51
2018-09-03T09:45:03.502Z,75.13
2018-09-03T09:47:32.859Z,74.77
2018-09-03T09:50:02.433Z,74.10
2018-09-03T09:52:32.061Z,74.63
2018-09-03T09:55:01.874Z,76.52
2018-09-03T09:57:31.162Z,76.39
2018-09-03T10:00:00.740Z,75.67
2018-09-03T10:02:30.110Z,75.83
2018-09-03T10:04:59.660Z,76.12
2018-09-03T10:07:29.022Z,75.99
2018-09-03T10:09:58.561Z,75.84
2018-09-03T10:12:32.920Z,75.64
2018-09-03T10:15:02.874Z,75.62
2018-09-03T10:17:32.443Z,76.41
2018-09-03T10:20:01.907Z,76.48
2018-09-03T10:22:31.267Z,75.56
2018-09-03T10:25:00.810Z,75.11
2018-09-03T10:27:30.200Z,74.05
2018-09-03T10:29:59.618Z,73.02
2018-09-03T10:32:30.273Z,71.84
2018-09-03T10:34:59.774Z,70.98
2018-09-03T10:37:29.128Z,69.93
2018-09-03T10:39:58.550Z,69.96
2018-09-03T10:42:28.503Z,69.99
2018-09-03T10:44:57.970Z,69.32
2018-09-03T10:47:27.425Z,67.37
2018-09-03T10:49:56.784Z,67.36
2018-09-03T10:52:26.134Z,68.07
2018-09-03T10:54:55.574Z,68.98
2018-09-03T10:57:25.291Z,69.46
2018-09-03T10:59:54.694Z,69.28
2018-09-03T11:02:24.037Z,69.42
2018-09-03T11:04:53.503Z,70.66
2018-09-03T11:07:22.867Z,69.71
2018-09-03T11:09:52.317Z,69.53
2018-09-03T11:12:21.665Z,70.79
2018-09-03T11:14:51.134Z,70.84
2018-09-03T11:17:20.513Z,72.60
2018-09-03T11:19:55.573Z,71.56
2018-09-03T11:22:25.160Z,72.74
2018-09-03T11:24:54.898Z,73.81
2018-09-03T11:27:24.269Z,74.03
2018-09-03T11:29:53.654Z,73.86
2018-09-03T11:32:23.021Z,74.43
2018-09-03T11:34:52.477Z,74.59
2018-09-03T11:37:21.853Z,75.52
2018-09-03T11:39:51.275Z,76.33
2018-09-03T11:42:20.640Z,76.52
2018-09-03T11:44:50.161Z,76.22
2018-09-03T11:47:19.517Z,76.39
2018-09-03T11:49:49.229Z,76.27
2018-09-03T11:52:18.613Z,76.25
2018-09-03T11:54:48.102Z,76.35
2018-09-03T11:57:17.475Z,76.15
2018-09-03T11:59:46.899Z,76.38
2018-09-03T12:02:16.270Z,75.86
2018-09-03T12:04:45.710Z,75.96
2018-09-03T12:07:15.118Z,76.44
2018-09-03T12:09:44.608Z,75.73
2018-09-03T12:12:13.972Z,75.91
2018-09-03T12:14:45.412Z,76.34
2018-09-03T12:17:14.768Z,75.68
2018-09-03T12:19:44.179Z,76.41
2018-09-03T12:22:13.545Z,77.74
2018-09-03T12:24:42.986Z,78.94
2018-09-03T12:27:12.354Z,79.78
2018-09-03T12:29:41.786Z,80.46
2018-09-03T12:32:11.172Z,81.97
2018-09-03T12:34:40.590Z,80.53
2018-09-03T12:37:09.951Z,80.80
2018-09-03T12:39:39.388Z,81.07
2018-09-03T12:42:08.770Z,79.76
2018-09-03T12:44:38.206Z,79.21
2018-09-03T12:47:07.598Z,78.83
2018-09-03T12:49:37.018Z,78.11
2018-09-03T12:52:06.597Z,77.61
2018-09-03T12:54:36.018Z,77.09
2018-09-03T12:57:05.410Z,77.05
2018-09-03T12:59:34.814Z,77.14
2018-09-03T13:02:04.162Z,77.04
2018-09-03T13:04:33.668Z,76.66
2018-09-03T13:07:02.996Z,75.66
2018-09-03T13:09:32.426Z,74.34
2018-09-03T13:12:01.771Z,74.03
2018-09-03T13:14:31.487Z,73.04
2018-09-03T13:17:00.943Z,73.64
2018-09-03T13:19:30.346Z,74.35
2018-09-03T13:21:59.732Z,75.12
2018-09-03T13:24:29.090Z,74.65
2018-09-03T13:26:58.542Z,76.08
2018-09-03T13:29:27.906Z,76.80
2018-09-03T13:31:57.359Z,77.06
2018-09-03T13:34:26.717Z,78.00
2018-09-03T13:36:56.142Z,79.59
2018-09-03T13:39:25.510Z,80.41
2018-09-03T13:41:55.017Z,80.81
2018-09-03T13:44:24.350Z,81.00
2018-09-03T13:46:53.765Z,80.37
2018-09-03T13:49:23.178Z,80.98
2018-09-03T13:51:52.589Z,80.10
2018-09-03T13:54:22.035Z,79.37
2018-09-03T13:56:51.487Z,79.27
2018-09-03T13:59:20.855Z,78.80
2018-09-03T14:01:50.294Z,79.15
2018-09-03T14:04:19.654Z,79.88
2018-09-03T14:06:49.107Z,79.11
2018-09-03T14:09:18.443Z,79.08
2018-09-03T14:11:47.849Z,78.53
2018-09-03T14:14:17.424Z,79.13
2018-09-03T14:16:46.790Z,79.06
2018-09-03T14:19:16.211Z,79.08
2018-09-03T14:21:45.575Z,80.20
2018-09-03T14:24:15.014Z,80.33
2018-09-03T14:26:44.371Z,81.41
2018-09-03T14:29:13.862Z,82.57
2018-09-03T14:31:43.217Z,84.09
2018-09-03T14:34:12.778Z,84.46
2018-09-03T14:36:42.152Z,84.96
2018-09-03T14:39:12.499Z,84.57
2018-09-03T14:41:41.871Z,86.04
2018-09-03T14:44:11.364Z,86.29
2018-09-03T14:46:40.726Z,86.59
2018-09-03T14:49:10.175Z,87.72
2018-09-03T14:51:39.531Z,87.32
2018-09-03T14:54:08.976Z,88.86
2018-09-03T14:56:38.322Z,88.19
2018-09-03T14:59:07.771Z,88.64
2018-09-03T15:01:37.122Z,88.89
2018-09-03T15:04:06.708Z,89.02
2018-09-03T15:06:36.034Z,89.11
2018-09-03T15:09:08.035Z,87.59
2018-09-03T15:11:37.415Z,89.20
2018-09-03T15:14:07.295Z,89.12
2018-09-03T15:16:36.655Z,88.30
2018-09-03T15:19:06.642Z,89.73
2018-09-03T15:21:36.298Z,89.23
2018-09-03T15:24:06.254Z,89.03
2018-09-03T15:26:35.683Z,89.28
2018-09-03T15:29:05.170Z,90.21
2018-09-03T15:31:34.536Z,90.55
2018-09-03T15:34:04.035Z,90.31
2018-09-03T15:36:33.455Z,91.10
2018-09-03T15:39:02.845Z,90.49
2018-09-03T15:41:32.211Z,90.24
2018-09-03T15:44:01.669Z,89.46
2018-09-03T15:46:31.022Z,89.65
2018-09-03T15:49:00.501Z,89.83
2018-09-03T15:51:29.846Z,89.63
2018-09-03T15:53:59.453Z,90.16
2018-09-03T15:56:28.812Z,89.48
2018-09-03T15:58:58.259Z,89.09
2018-09-03T16:01:27.631Z,88.80
2018-09-03T16:03:57.082Z,88.97
2018-09-03T16:06:26.454Z,88.93
2018-09-03T16:08:55.860Z,88.78
2018-09-03T16:11:25.259Z,88.61
2018-09-03T16:13:54.791Z,88.82
2018-09-03T16:16:24.168Z,89.26
2018-09-03T16:18:54.606Z,89.36
2018-09-03T16:21:23.983Z,88.87
2018-09-03T16:23:53.418Z,89.14
2018-09-03T16:26:22.781Z,89.56
2018-09-03T16:28:52.210Z,90.44
2018-09-03T16:31:21.562Z,90.52
2018-09-03T16:33:51.034Z,89.77
2018-09-03T16:36:20.410Z,89.68
2018-09-03T16:38:49.992Z,90.04
2018-09-03T16:41:19.323Z,90.43
2018-09-03T16:43:49.802Z,90.43
2018-09-03T16:46:19.199Z,90.66
2018-09-03T16:48:48.676Z,90.95
2018-09-03T16:51:18.037Z,90.92
2018-09-03T16:53:47.482Z,90.81
2018-09-03T16:56:16.886Z,90.72
2018-09-03T16:58:46.459Z,91.23
2018-09-03T17:01:16.018Z,91.14
2018-09-03T17:03:45.310Z,90.84
2018-09-03T17:06:14.685Z,90.93
2018-09-03T17:08:44.223Z,91.49
2018-09-03T17:11:13.590Z,91.28
2018-09-03T17:13:42.996Z,91.79
2018-09-03T17:16:12.378Z,91.64
2018-09-03T17:18:41.799Z,91.61
2018-09-03T17:21:11.166Z,91.49
2018-09-03T17:23:40.531Z,91.73
2018-09-03T17:26:09.902Z,91.57
2018-09-03T17:28:39.484Z,91.65
2018-09-03T17:31:08.821Z,91.63
2018-09-03T17:33:38.314Z,91.83
2018-09-03T17:36:07.706Z,92.12
2018-09-03T17:38:37.232Z,92.20
2018-09-03T17:41:06.609Z,92.67
2018-09-03T17:43:36.037Z,92.54
2018-09-03T17:46:05.515Z,92.98
2018-09-03T17:48:34.914Z,92.80
2018-09-03T17:51:04.256Z,92.39
2018-09-03T17:53:33.767Z,93.02
2018-09-03T17:56:03.113Z,93.45
2018-09-03T17:58:32.542Z,92.67
2018-09-03T18:01:02.202Z,93.10
2018-09-03T18:03:31.630Z,92.97
2018-09-03T18:06:00.998Z,94.49
2018-09-03T18:08:30.418Z,93.56
2018-09-03T18:10:59.795Z,93.30
2018-09-03T18:13:29.283Z,93.55
2018-09-03T18:15:58.661Z,93.41
2018-09-03T18:18:28.431Z,94.10
2018-09-03T18:20:57.786Z,94.76
2018-09-03T18:23:27.285Z,94.09
2018-09-03T18:25:56.715Z,94.47
2018-09-03T18:28:26.212Z,93.46
2018-09-03T18:30:55.548Z,94.15
2018-09-03T18:33:25.034Z,93.89
2018-09-03T18:35:54.463Z,94.01
2018-09-03T18:38:24.053Z,94.09
2018-09-03T18:40:53.407Z,94.57
2018-09-03T18:43:22.830Z,94.46
2018-09-03T18:45:52.187Z,95.39
2018-09-03T18:48:21.638Z,95.67
2018-09-03T18:50:50.981Z,94.50
2018-09-03T18:53:20.437Z,94.72
2018-09-03T18:55:49.978Z,95.26
2018-09-03T18:58:19.395Z,95.23
2018-09-03T19:00:48.809Z,95.90
2018-09-03T19:03:18.239Z,96.12
2018-09-03T19:05:47.611Z,95.59
2018-09-03T19:08:17.051Z,96.12
2018-09-03T19:10:46.405Z,96.14
2018-09-03T19:13:15.765Z,96.37
2018-09-03T19:15:45.271Z,96.55
2018-09-03T19:18:14.633Z,96.89
2018-09-03T19:20:44.023Z,96.71
2018-09-03T19:23:13.860Z,96.84
2018-09-03T19:25:43.218Z,97.18
2018-09-03T19:28:12.683Z,97.20
2018-09-03T19:30:42.044Z,97.30
2018-09-03T19:33:11.421Z,97.62
2018-09-03T19:35:40.789Z,97.68
2018-09-03T19:38:10.316Z,97.75
2018-09-03T19:40:39.686Z,97.72
2018-09-03T19:43:09.201Z,97.77
2018-09-03T19:45:38.558Z,97.42
2018-09-03T19:48:07.986Z,97.71
2018-09-03T19:50:37.531Z,97.50
2018-09-03T19:53:06.956Z,97.31
2018-09-03T19:55:37.133Z,96.57
2018-09-03T19:58:06.830Z,96.33
2018-09-03T20:00:36.458Z,96.63
2018-09-03T20:03:06.372Z,96.39
2018-09-03T20:05:35.782Z,96.36
2018-09-03T20:08:05.407Z,96.16
2018-09-03T20:10:34.842Z,96.57
2018-09-03T20:13:04.346Z,96.10
2018-09-03T20:15:33.903Z,96.45
2018-09-03T20:18:03.314Z,96.39
2018-09-03T20:20:33.155Z,96.63
2018-09-03T20:23:02.702Z,96.95
2018-09-03T20:25:32.230Z,96.58
2018-09-03T20:28:01.864Z,97.06
2018-09-03T20:30:31.220Z,96.97
2018-09-03T20:33:01.975Z,97.53
2018-09-03T20:35:31.342Z,97.41
2018-09-03T20:38:00.884Z,97.32
2018-09-03T20:40:30.258Z,97.95
2018-09-03T20:42:59.876Z,97.90
2018-09-03T20:45:29.202Z,98.48
2018-09-03T20:47:58.712Z,98.29
2018-09-03T20:50:28.110Z,98.26
2018-09-03T20:52:57.610Z,98.03
2018-09-03T20:55:26.991Z,99.05
2018-09-03T20:57:56.510Z,99.00
2018-09-03T21:00:25.943Z,98.97
2018-09-03T21:02:55.405Z,99.11
2018-09-03T21:05:24.839Z,99.13
2018-09-03T21:07:54.362Z,98.75
2018-09-03T21:10:23.783Z,98.95
2018-09-03T21:12:53.350Z,99.08
2018-09-03T21:15:22.770Z,99.46
2018-09-03T21:17:52.145Z,99.88
2018-09-03T21:20:21.654Z,100.00
2018-09-03T21:22:51.084Z,99.73
2018-09-03T21:25:20.590Z,100.00
2018-09-03T21:27:49.981Z,99.94
2018-09-03T21:30:19.468Z,99.94
2018-09-03T21:32:48.863Z,99.90
2018-09-03T21:35:18.394Z,99.54
2018-09-03T21:37:47.780Z,99.71
2018-09-03T21:40:17.305Z,99.99
2018-09-03T21:42:46.722Z,99.32
2018-09-03T21:45:16.301Z,99.77
2018-09-03T21:47:45.807Z,99.67
2018-09-03T21:50:15.288Z,99.86
2018-09-03T21:52:44.722Z,99.50
2018-09-03T21:55:14.271Z,99.70
2018-09-03T21:57:43.782Z,99.95
2018-09-03T22:00:13.314Z,100.00
2018-09-03T22:02:42.782Z,99.81
2018-09-03T22:05:12.300Z,100.00
2018-09-03T22:07:41.718Z,99.92
2018-09-03T22:10:11.483Z,99.97
2018-09-03T22:12:41.072Z,99.90
2018-09-03T22:15:10.894Z,99.80
2018-09-03T22:17:40.313Z,99.78
2018-09-03T22:20:09.749Z,100.00
2018-09-03T22:22:39.342Z,100.00
2018-09-03T22:25:08.766Z,100.00
2018-09-03T22:27:38.275Z,100.00
2018-09-03T22:30:07.921Z,100.00
2018-09-03T22:32:37.377Z,100.00
2018-09-03T22:35:06.758Z,100.00
2018-09-03T22:37:36.311Z,100.00
2018-09-03T22:40:06.694Z,100.00
2018-09-03T22:42:36.223Z,100.00
2018-09-03T22:45:05.624Z,100.00
2018-09-03T22:47:35.027Z,100.00
2018-09-03T22:50:04.427Z,100.00
2018-09-03T22:52:34.744Z,100.00
2018-09-03T22:55:04.134Z,100.00
2018-09-03T22:57:33.653Z,100.00
2018-09-03T23:00:03.430Z,100.00
2018-09-03T23:02:37.047Z,100.00
2018-09-03T23:05:06.458Z,100.00
2018-09-03T23:07:35.910Z,100.00
2018-09-03T23:10:05.586Z,100.00
2018-09-03T23:12:35.133Z,100.00
2018-09-03T23:15:04.734Z,100.00
2018-09-03T23:17:34.342Z,100.00
2018-09-03T23:20:03.950Z,100.00
2018-09-03T23:22:33.334Z,100.00
2018-09-03T23:25:02.809Z,100.00
2018-09-03T23:27:32.225Z,100.00
2018-09-03T23:30:01.707Z,100.00
2018-09-03T23:32:31.099Z,100.00
2018-09-03T23:35:00.635Z,100.00
2018-09-03T23:37:30.042Z,100.00
2018-09-03T23:39:59.559Z,100.00
2018-09-03T23:42:28.963Z,100.00
2018-09-03T23:44:58.451Z,100.00
2018-09-03T23:47:27.840Z,100.00
2018-09-03T23:49:57.356Z,100.00
2018-09-03T23:52:26.745Z,100.00
2018-09-03T23:54:56.271Z,100.00
2018-09-03T23:57:25.630Z,100.00
2018-09-03T23:59:55.062Z,100.00
